EW6799 Badalona ES current weather conditions

sailwx.info

Wind from 053 at 12 knots gusting 22

Air temperature 14.4° C
Dewpoint 13.0° C

Last reported at 2020-Jan-22 15:04 UTC.
Time now 2020-Jan-22 16:01 UTC

Location: N 41°27' E 002°15'.
View on Google Maps.

See reports from other nearby stations

  
Tides and Currents Weather Stations Pressure Air Temp Water Temp Dewpoint Dewpoint Depression Visibility Wind Speed Wind Dir Waves Ship Positions
date/time (UTC)wind fromknots sea level pressurealtimeterstation pressurevisibilityair tempwater tempwave heightnotes
2020-Jan-22 15:04 053 12 gusting 22 14.4
2020-Jan-22 14:29 060 10 gusting 17 14.4
2020-Jan-22 14:19 054 8 gusting 15 14.4
2020-Jan-22 14:14 044 12 gusting 18 14.4
2020-Jan-22 13:59 047 10 gusting 17 14.4
2020-Jan-22 13:54 045 11 gusting 19 14.4
2020-Jan-22 13:49 051 11 gusting 17 14.4
2020-Jan-22 13:39 053 11 gusting 17 14.4
2020-Jan-22 13:34 038 12 gusting 21 14.4
2020-Jan-22 13:29 049 11 gusting 19 14.4
2020-Jan-22 13:24 045 11 gusting 18 14.4
2020-Jan-22 13:19 052 12 gusting 17 14.4
2020-Jan-22 13:14 047 11 gusting 17 14.4
2020-Jan-22 13:04 047 10 gusting 17 14.4
2020-Jan-22 12:54 044 8 gusting 14 14.4
2020-Jan-22 12:49 051 8 gusting 13 14.4
2020-Jan-22 12:44 043 8 gusting 13 14.4
2020-Jan-22 12:39 045 9 gusting 13 14.4
2020-Jan-22 12:34 052 6 gusting 13 14.4
2020-Jan-22 12:29 050 7 gusting 13 14.4
2020-Jan-22 12:24 053 7 gusting 12 14.4
2020-Jan-22 12:19 047 8 gusting 14 14.4
2020-Jan-22 12:14 046 9 gusting 14 14.4
2020-Jan-22 12:09 044 10 gusting 15 14.4
2020-Jan-22 11:59 047 7 gusting 17 14.4
2020-Jan-22 11:54 049 9 gusting 17 14.4
2020-Jan-22 11:49 052 7 gusting 13 14.4
2020-Jan-22 11:34 062 11 gusting 18 14.4
2020-Jan-22 11:29 062 12 gusting 20 14.4
2020-Jan-22 11:24 069 16 gusting 22 14.4
2020-Jan-22 11:19 063 10 gusting 19 14.4
2020-Jan-22 11:14 062 13 gusting 21 14.4
2020-Jan-22 11:09 067 17 gusting 22 14.4
2020-Jan-22 10:54 061 13 gusting 19 14.4
2020-Jan-22 10:49 062 15 gusting 19 14.4
2020-Jan-22 10:44 064 15 gusting 22 14.4
2020-Jan-22 10:39 061 14 gusting 20 14.4
2020-Jan-22 10:34 065 12 gusting 20 14.4
2020-Jan-22 10:24 070 12 gusting 17 14.4
2020-Jan-22 10:09 066 11 gusting 22 14.4
2020-Jan-22 10:04 066 13 gusting 21 14.4
2020-Jan-22 09:49 066 14 gusting 21 14.4
2020-Jan-22 09:29 074 10 gusting 19 14.4
2020-Jan-22 09:24 063 11 gusting 18 14.4
2020-Jan-22 09:19 063 12 gusting 17 14.4
2020-Jan-22 09:09 067 12 gusting 17 14.4
2020-Jan-22 08:59 063 12 gusting 17 14.4
2020-Jan-22 08:54 062 7 gusting 13 14.4
2020-Jan-22 08:34 061 11 gusting 15 14.4
2020-Jan-22 08:29 069 4 gusting 11 13.9
2020-Jan-22 08:24 060 2 gusting 6 13.3
2020-Jan-22 08:19 022 2 gusting 6 13.9
2020-Jan-22 08:14 351 4 gusting 8 13.3
2020-Jan-22 08:04 029 2 gusting 7 13.3
2020-Jan-22 07:59 341 1 gusting 6 12.8
2020-Jan-22 07:49 303 0 gusting 2 12.2
2020-Jan-22 07:44 316 1 gusting 4 12.2
2020-Jan-22 07:39 321 2 gusting 5 12.8
2020-Jan-22 07:34 344 1 gusting 2 12.8
2020-Jan-22 07:29 357 2 gusting 6 12.8
2020-Jan-22 07:14 346 0 gusting 2 12.2
2020-Jan-22 06:49 308 0 gusting 4 11.7
2020-Jan-22 06:39 302 1 gusting 2 11.7
2020-Jan-22 06:34 303 1 gusting 2 11.7
2020-Jan-22 06:24 305 0 gusting 2 11.7
2020-Jan-22 06:19 284 1 gusting 2 11.7
2020-Jan-22 06:14 301 1 gusting 2 11.7
2020-Jan-22 06:04 296 1 gusting 4 11.7
2020-Jan-22 05:49 316 1 gusting 2 11.7
2020-Jan-22 05:39 324 1 gusting 2 11.7
2020-Jan-22 05:19 325 1 gusting 4 11.1
2020-Jan-22 05:14 313 2 gusting 6 11.1
2020-Jan-22 05:04 319 2 gusting 6 11.1
2020-Jan-22 04:54 313 2 gusting 5 11.1
2020-Jan-22 04:49 294 1 gusting 2 11.1
2020-Jan-22 04:34 140 0 gusting 2 11.1
2020-Jan-22 04:29 166 11.1
2020-Jan-22 04:19 270 11.1
2020-Jan-22 04:04 276 1 gusting 5 11.1
2020-Jan-22 03:54 207 4 gusting 6 11.7
2020-Jan-22 03:09 003 6 gusting 13 11.7
2020-Jan-22 03:04 027 3 gusting 7 11.7
2020-Jan-22 02:44 11.7
2020-Jan-22 02:39 006 6 gusting 13 11.7
2020-Jan-22 02:29 024 5 gusting 10 11.7
2020-Jan-22 02:24 021 3 gusting 10 11.7
2020-Jan-22 02:19 033 3 gusting 12 11.7
2020-Jan-22 02:09 002 3 gusting 10 11.7
2020-Jan-22 02:04 009 6 gusting 10 11.7
2020-Jan-22 01:54 359 4 gusting 6 11.1
2020-Jan-22 01:39 017 1 gusting 2 11.1
2020-Jan-22 01:34 004 0 gusting 4 11.1
2020-Jan-22 01:29 039 1 gusting 6 11.1
2020-Jan-22 01:24 353 2 gusting 6 11.1
2020-Jan-22 01:09 146 0 gusting 1 11.1
2020-Jan-22 00:59 286 11.1
2020-Jan-22 00:49 355 1 gusting 6 11.1
2020-Jan-22 00:44 031 4 gusting 6 11.1
2020-Jan-22 00:24 025 0 gusting 2 11.1
2020-Jan-22 00:19 324 1 gusting 2 11.1
2020-Jan-22 00:14 163 11.1
2020-Jan-22 00:04 013 11.1
2020-Jan-21 23:44 339 2 gusting 10 11.7
2020-Jan-21 23:39 045 5 gusting 14 11.7
2020-Jan-21 23:34 043 7 gusting 15 11.7
2020-Jan-21 23:29 041 8 gusting 15 11.7
2020-Jan-21 23:19 041 11 gusting 17 11.1
2020-Jan-21 23:14 049 12 gusting 24 11.7
2020-Jan-21 23:09 059 13 gusting 20 11.7
2020-Jan-21 23:04 050 6 gusting 12 11.1
2020-Jan-21 22:59 354 7 gusting 17 11.1
2020-Jan-21 22:29 067 6 gusting 19 10.6
2020-Jan-21 22:19 266 8 gusting 17 11.1
2020-Jan-21 22:04 057 12 gusting 19 10.6
2020-Jan-21 21:59 064 19 gusting 35 11.1
2020-Jan-21 21:29 039 13 gusting 37 11.7
2020-Jan-21 21:19 051 18 gusting 31 11.7
2020-Jan-21 21:14 042 19 gusting 30 11.7
2020-Jan-21 21:09 049 17 gusting 24 11.7
2020-Jan-21 21:04 045 13 gusting 27 11.7
2020-Jan-21 20:49 049 18 gusting 32 11.7
2020-Jan-21 20:44 043 21 gusting 39 11.7
2020-Jan-21 20:34 042 13 gusting 30 11.7
2020-Jan-21 20:29 046 16 gusting 28 11.7
2020-Jan-21 20:19 044 14 gusting 33 11.7
2020-Jan-21 20:04 040 18 gusting 34 11.7
2020-Jan-21 19:54 037 17 gusting 30 12.2
2020-Jan-21 19:39 049 17 gusting 30 12.8
2020-Jan-21 19:09 031 14 gusting 25 12.2
2020-Jan-21 19:04 047 12 gusting 22 12.2
2020-Jan-21 18:54 040 15 gusting 25 12.2
2020-Jan-21 18:49 040 13 gusting 26 12.2
2020-Jan-21 18:44 044 13 gusting 31 12.2
2020-Jan-21 18:39 030 16 gusting 28 12.8
2020-Jan-21 18:29 039 12 gusting 31 12.2
2020-Jan-21 18:24 043 18 gusting 33 12.2
2020-Jan-21 18:19 040 12 gusting 22 12.2
2020-Jan-21 18:14 050 13 gusting 21 12.2
2020-Jan-21 18:09 037 14 gusting 31 12.2
2020-Jan-21 17:59 007 15 gusting 35 12.2
2020-Jan-21 17:54 049 17 gusting 34 12.2
2020-Jan-21 17:49 043 11 gusting 27 12.2
2020-Jan-21 17:29 047 15 gusting 27 12.2
2020-Jan-21 17:19 039 14 gusting 28 12.2
2020-Jan-21 17:14 040 13 gusting 27 12.2
2020-Jan-21 17:09 040 14 gusting 30 12.2
2020-Jan-21 16:39 044 19 gusting 33 11.7
2020-Jan-21 16:19 041 17 gusting 30 12.2
2020-Jan-21 16:09 050 13 gusting 30 12.2
2020-Jan-21 16:04 040 18 gusting 30 12.2
2020-Jan-21 15:59 045 14 gusting 26 12.2
2020-Jan-21 15:54 052 13 gusting 27 12.2
2020-Jan-21 15:49 046 16 gusting 30 12.2
2020-Jan-21 15:44 045 19 gusting 30 12.8
2020-Jan-21 15:39 044 16 gusting 27 12.2
2020-Jan-21 15:34 043 17 gusting 28 12.2
2020-Jan-21 15:29 050 18 gusting 32 12.2
2020-Jan-21 15:19 050 16 gusting 39 12.2
2020-Jan-21 15:14 043 17 gusting 32 12.8
2020-Jan-21 15:04 051 18 gusting 33 12.8
2020-Jan-21 14:54 040 19 gusting 31 12.8
2020-Jan-21 14:49 045 18 gusting 37 12.8
2020-Jan-21 14:44 044 17 gusting 33 12.8
2020-Jan-21 14:39 045 15 gusting 28 12.8
2020-Jan-21 14:34 045 19 gusting 34 12.8
2020-Jan-21 14:29 048 15 gusting 30 12.8
2020-Jan-21 14:19 052 19 gusting 37 12.8
2020-Jan-21 14:14 051 21 gusting 30 12.8
2020-Jan-21 14:09 042 16 gusting 33 12.8
2020-Jan-21 13:49 049 14 gusting 26 12.8
2020-Jan-21 13:39 044 19 gusting 33 12.2
2020-Jan-21 13:34 042 15 gusting 28 12.2
2020-Jan-21 13:29 047 18 gusting 37 12.2
2020-Jan-21 13:24 051 17 gusting 30 12.2
2020-Jan-21 13:19 043 19 gusting 30 12.2
2020-Jan-21 12:59 042 19 gusting 30 12.2
2020-Jan-21 12:39 043 19 gusting 35 12.2
2020-Jan-21 12:34 034 17 gusting 35 12.2
2020-Jan-21 12:24 045 20 gusting 37 12.2
2020-Jan-21 12:14 047 22 gusting 34 12.2
2020-Jan-21 12:09 045 20 gusting 34 12.2
2020-Jan-21 12:04 051 19 gusting 34 12.2
2020-Jan-21 11:59 044 22 gusting 39 12.2
2020-Jan-21 11:54 047 19 gusting 41 12.2
2020-Jan-21 11:44 036 19 gusting 39 12.2
2020-Jan-21 11:34 047 22 gusting 37 12.2
2020-Jan-21 11:29 044 19 gusting 34 12.2
2020-Jan-21 11:24 044 15 gusting 27 12.2
2020-Jan-21 11:14 043 15 gusting 31 11.7
2020-Jan-21 11:09 046 19 gusting 37 11.7
2020-Jan-21 11:04 044 19 gusting 33 11.7
2020-Jan-21 10:59 052 20 gusting 33 11.7
2020-Jan-21 10:49 036 19 gusting 35 11.7
2020-Jan-21 10:34 044 15 gusting 27 11.7
2020-Jan-21 10:29 046 19 gusting 33 11.7
2020-Jan-21 10:04 047 15 gusting 31 11.1
2020-Jan-21 09:59 053 19 gusting 30 11.1
2020-Jan-21 09:44 034 22 gusting 34 11.1
2020-Jan-21 09:29 048 16 gusting 30 11.1
2020-Jan-21 09:24 047 22 gusting 34 11.1
2020-Jan-21 09:14 047 22 gusting 33 11.1
2020-Jan-21 09:09 047 17 gusting 31 11.1
2020-Jan-21 09:04 047 20 gusting 34 11.1
2020-Jan-21 08:59 051 21 gusting 33 11.1
2020-Jan-21 08:44 045 21 gusting 39 11.1
2020-Jan-21 08:39 042 18 gusting 30 11.1
2020-Jan-21 08:34 039 16 gusting 27 11.1
2020-Jan-21 08:24 037 18 gusting 30 11.1
2020-Jan-21 08:14 048 12 gusting 31 11.1
2020-Jan-21 08:09 044 14 gusting 30 11.1
2020-Jan-21 08:04 046 17 gusting 26 11.1
2020-Jan-21 07:54 055 18 gusting 32 10.6
2020-Jan-21 07:49 054 18 gusting 30 10.6
2020-Jan-21 07:44 049 13 gusting 30 10.6
2020-Jan-21 07:34 033 15 gusting 22 10.0
2020-Jan-21 07:29 030 15 gusting 27 10.0
2020-Jan-21 07:14 038 12 gusting 25 10.0
2020-Jan-21 07:09 028 14 gusting 24 10.0
2020-Jan-21 06:59 039 12 gusting 22 9.4
2020-Jan-21 06:54 028 13 gusting 22 10.0
2020-Jan-21 06:49 034 14 gusting 25 9.4
2020-Jan-21 06:39 040 13 gusting 26 10.0
2020-Jan-21 06:29 036 13 gusting 28 10.0
2020-Jan-21 06:24 039 12 gusting 26 10.0
2020-Jan-21 06:19 042 11 gusting 22 10.0
2020-Jan-21 06:09 037 16 gusting 31 9.4
2020-Jan-21 06:04 043 12 gusting 22 9.4
2020-Jan-21 05:59 025 13 gusting 25 9.4
2020-Jan-21 05:54 031 11 gusting 24 9.4
2020-Jan-21 05:39 048 8 gusting 24 9.4
2020-Jan-21 05:19 033 13 gusting 26 10.0
2020-Jan-21 05:14 020 13 gusting 25 9.4
2020-Jan-21 05:09 027 11 gusting 22 9.4
2020-Jan-21 05:04 019 8 gusting 22 9.4
2020-Jan-21 04:59 007 7 gusting 19 9.4
2020-Jan-21 04:54 027 10 gusting 22 9.4
2020-Jan-21 04:49 027 8 gusting 19 9.4
2020-Jan-21 04:29 026 8 gusting 19 8.9
2020-Jan-21 04:04 013 9 gusting 21 8.9
2020-Jan-21 03:59 024 8 gusting 18 8.9
2020-Jan-21 03:54 014 9 gusting 21 8.9
2020-Jan-21 03:44 017 8 gusting 21 8.3
2020-Jan-21 03:39 044 7 gusting 19 8.3
2020-Jan-21 03:34 024 10 gusting 19 8.3
2020-Jan-21 03:29 018 6 gusting 19 8.3
2020-Jan-21 03:24 021 7 gusting 19 8.3
2020-Jan-21 03:19 014 7 gusting 22 8.3
2020-Jan-21 03:04 039 13 gusting 28 7.8
2020-Jan-21 02:54 016 10 gusting 26 7.8
2020-Jan-21 02:49 006 8 gusting 19 7.8
2020-Jan-21 02:34 032 11 gusting 22 7.8
2020-Jan-21 02:19 007 13 gusting 27 7.8
2020-Jan-21 02:14 003 15 gusting 30 7.8
2020-Jan-21 02:04 009 14 gusting 30 7.8
2020-Jan-21 01:59 002 14 gusting 26 7.8
2020-Jan-21 01:44 016 14 gusting 27 7.8
2020-Jan-21 01:34 009 11 gusting 34 7.8
2020-Jan-21 01:29 011 12 gusting 22 7.8
2020-Jan-21 01:09 026 11 gusting 22 7.8
2020-Jan-21 01:04 027 11 gusting 22 7.8
2020-Jan-21 00:59 018 15 gusting 30 7.8
2020-Jan-21 00:49 351 12 gusting 26 7.8
2020-Jan-21 00:24 020 12 gusting 24 7.8
2020-Jan-21 00:19 021 12 gusting 33 7.8
2020-Jan-21 00:14 026 11 gusting 33 7.8
2020-Jan-21 00:09 356 13 gusting 25 7.8
2020-Jan-21 00:04 010 17 gusting 31 7.8
2020-Jan-20 23:54 013 14 gusting 26 7.8
2020-Jan-20 23:29 011 14 gusting 30 7.8
2020-Jan-20 23:24 027 13 gusting 26 7.8
2020-Jan-20 23:14 356 11 gusting 26 7.8
2020-Jan-20 23:09 004 17 gusting 32 8.3
2020-Jan-20 22:49 011 15 gusting 26 8.9
2020-Jan-20 22:44 8.9
2020-Jan-20 22:39 005 15 gusting 31 8.9
2020-Jan-20 22:19 030 13 gusting 26 8.9
2020-Jan-20 22:14 358 16 gusting 30 8.9
2020-Jan-20 22:09 045 13 gusting 32 8.9
2020-Jan-20 21:59 001 11 gusting 21 8.9
2020-Jan-20 21:54 016 11 gusting 26 8.9
2020-Jan-20 21:49 009 13 gusting 25 8.9
2020-Jan-20 21:19 020 8 gusting 26 8.9
2020-Jan-20 20:54 008 8 gusting 24 8.9
2020-Jan-20 20:44 026 13 gusting 25 8.9
2020-Jan-20 20:39 004 11 gusting 22 8.9
2020-Jan-20 20:24 025 14 gusting 26 8.9
2020-Jan-20 20:09 033 12 gusting 31 8.9
2020-Jan-20 20:04 032 11 gusting 26 8.9
2020-Jan-20 19:59 017 11 gusting 27 8.9
2020-Jan-20 19:54 014 11 gusting 26 8.9
2020-Jan-20 19:49 009 10 gusting 24 8.9
2020-Jan-20 19:44 040 11 gusting 19 8.9
2020-Jan-20 19:34 025 13 gusting 27 8.3
2020-Jan-20 19:24 017 14 gusting 26 8.3
2020-Jan-20 19:19 014 11 gusting 22 7.8
2020-Jan-20 18:54 014 10 gusting 22 8.3
2020-Jan-20 18:44 023 10 gusting 25 8.3
2020-Jan-20 18:29 011 10 gusting 26 8.3
2020-Jan-20 18:24 031 12 gusting 26 8.9
2020-Jan-20 18:09 018 10 gusting 24 8.9
2020-Jan-20 17:54 026 13 gusting 33 8.9
2020-Jan-20 17:44 025 12 gusting 26 8.9
2020-Jan-20 17:29 024 11 gusting 24 8.3
2020-Jan-20 17:24 008 8 gusting 20 8.3
2020-Jan-20 17:19 031 10 gusting 20 8.3
2020-Jan-20 17:14 023 10 gusting 22 8.3
2020-Jan-20 17:09 021 11 gusting 24 8.3
2020-Jan-20 16:54 012 11 gusting 21 8.3
2020-Jan-20 16:49 014 13 gusting 26 8.3
2020-Jan-20 16:39 008 11 gusting 20 8.3
2020-Jan-20 16:34 023 12 gusting 30 8.3
2020-Jan-20 16:19 020 12 gusting 22 8.3
2020-Jan-20 16:09 010 12 gusting 24 8.3